Time;durP1;ratioP1;P1;durP2;ratioP2;P2;SDS_P1;SDS_P2;PMS_P1;PMS_P2;Temp;Humidity;BMP_temperature;BMP_pressure;BME280_temperature;BME280_humidity;BME280_pressure;Samples;Min_cycle;Max_cycle;Signal;HPM_P1;HPM_P2
2022/04/30 00:00:57;;;;;;;5.75;2.78;;;;;;;7.30;85.25;102559.66;5013726;28;20188;-52
2022/04/30 00:03:26;;;;;;;6.15;2.92;;;;;;;7.35;84.71;102555.25;5031848;28;20176;-51
2022/04/30 00:05:51;;;;;;;5.50;2.63;;;;;;;7.39;84.43;102559.72;5030777;28;20240;-50
2022/04/30 00:08:17;;;;;;;6.10;3.17;;;;;;;7.41;84.62;102555.28;5013588;28;20274;-52
2022/04/30 00:10:42;;;;;;;6.38;2.50;;;;;;;7.45;84.59;102553.50;5031464;28;20228;-51
2022/04/30 00:13:10;;;;;;;6.10;2.85;;;;;;;7.47;84.34;102551.72;5031487;28;20184;-51
2022/04/30 00:15:37;;;;;;;5.82;2.50;;;;;;;7.40;84.85;102561.47;5013713;28;20163;-51
2022/04/30 00:18:03;;;;;;;5.72;2.67;;;;;;;7.37;84.04;102550.81;5030973;28;20294;-52
2022/04/30 00:20:29;;;;;;;5.72;3.10;;;;;;;7.24;84.85;102554.34;5031068;28;20196;-49
2022/04/30 00:22:54;;;;;;;4.90;2.65;;;;;;;7.22;84.78;102550.78;5046682;28;20184;-51
2022/04/30 00:25:21;;;;;;;5.03;2.55;;;;;;;6.99;85.54;102548.00;5031325;28;20284;-51
2022/04/30 00:27:47;;;;;;;2.72;2.30;;;;;;;7.15;85.84;102548.94;5013163;28;20182;-51
2022/04/30 00:30:14;;;;;;;5.32;2.47;;;;;;;7.13;86.10;102545.44;5030584;28;20200;-51
2022/04/30 00:32:40;;;;;;;7.47;2.65;;;;;;;7.15;86.27;102543.63;5031218;28;20282;-48
2022/04/30 00:35:06;;;;;;;5.95;2.90;;;;;;;7.05;85.96;102547.16;5030874;28;20168;-47
2022/04/30 00:37:32;;;;;;;6.90;2.90;;;;;;;7.14;85.65;102541.84;5030510;28;20608;-51
2022/04/30 00:39:57;;;;;;;5.30;2.47;;;;;;;7.09;86.20;102544.50;5030964;28;20271;-44
2022/04/30 00:42:23;;;;;;;6.82;2.53;;;;;;;7.07;86.01;102534.72;5013006;28;20199;-47
2022/04/30 00:44:49;;;;;;;6.03;2.67;;;;;;;7.07;85.74;102537.41;5030788;28;20192;-47
2022/04/30 00:47:19;;;;;;;3.22;2.00;;;;;;;7.15;85.86;102531.22;5012967;28;20184;-46
2022/04/30 00:49:47;;;;;;;2.30;2.10;;;;;;;7.13;86.15;102532.09;5029793;28;20592;-49
2022/04/30 00:52:15;;;;;;;4.25;2.50;;;;;;;6.99;85.58;102527.56;5030550;28;20376;-47
2022/04/30 00:54:42;;;;;;;9.82;2.53;;;;;;;6.99;86.23;102527.56;5012447;28;20183;-47
2022/04/30 00:57:13;;;;;;;3.50;2.45;;;;;;;6.88;86.65;102539.09;5030497;28;20251;-44
2022/04/30 00:59:40;;;;;;;4.43;2.33;;;;;;;6.98;86.73;102530.25;5030384;28;20204;-43
2022/04/30 01:02:09;;;;;;;3.88;1.80;;;;;;;6.99;86.74;102532.03;5030056;28;20172;-43
2022/04/30 01:04:46;;;;;;;2.97;2.13;;;;;;;6.99;86.62;102527.56;5029450;28;20226;-42
2022/04/30 01:07:12;;;;;;;4.95;2.45;;;;;;;6.96;86.17;102522.25;5045614;28;20474;-43
2022/04/30 01:09:39;;;;;;;4.30;2.20;;;;;;;6.91;86.13;102532.00;5030309;28;20694;-44
2022/04/30 01:12:10;;;;;;;3.13;2.25;;;;;;;6.90;86.55;102527.53;5012940;28;20182;-43
2022/04/30 01:14:38;;;;;;;4.47;2.15;;;;;;;6.89;86.63;102512.47;5020663;28;20219;-43
2022/04/30 01:17:06;;;;;;;4.50;2.50;;;;;;;6.89;86.17;102523.13;5010026;28;20229;-47
2022/04/30 01:19:41;;;;;;;3.70;2.22;;;;;;;6.83;86.26;102514.22;4991986;28;20559;-44
2022/04/30 01:22:21;;;;;;;3.70;2.17;;;;;;;6.85;86.92;102523.09;5010453;28;20180;-50
2022/04/30 01:24:48;;;;;;;7.25;2.33;;;;;;;6.76;87.04;102515.94;4999866;28;20215;-41
2022/04/30 01:27:16;;;;;;;4.43;2.30;;;;;;;6.89;86.95;102524.91;5029809;28;20180;-43
2022/04/30 01:29:41;;;;;;;3.58;2.30;;;;;;;6.63;86.28;102512.34;5030206;28;20616;-43
2022/04/30 01:37:37;;;;;;;4.28;2.50;;;;;;;6.50;88.77;102513.16;5029362;28;20187;-40
2022/04/30 01:40:10;;;;;;;3.47;2.17;;;;;;;6.50;88.52;102515.81;5029836;28;20295;-40
2022/04/30 01:42:38;;;;;;;3.10;2.17;;;;;;;6.56;88.45;102511.41;5029958;28;20263;-41
2022/04/30 01:45:05;;;;;;;4.18;2.35;;;;;;;6.45;88.47;102509.56;5030002;28;20216;-41
2022/04/30 01:47:33;;;;;;;5.78;2.33;;;;;;;6.47;88.60;102505.13;5028691;28;20242;-40
2022/04/30 01:49:59;;;;;;;3.05;1.90;;;;;;;6.52;88.30;102500.75;5029722;28;20596;-41
2022/04/30 01:52:25;;;;;;;4.38;2.25;;;;;;;6.40;88.68;102507.75;5029794;28;20199;-40
2022/04/30 01:54:50;;;;;;;5.75;2.30;;;;;;;6.27;88.61;102502.34;5029662;28;20176;-40
2022/04/30 01:57:23;;;;;;;3.65;2.20;;;;;;;6.31;88.95;102510.34;5029789;28;20186;-41
2022/04/30 01:59:51;;;;;;;3.58;2.10;;;;;;;6.42;88.74;102512.22;5029382;28;20200;-41
2022/04/30 02:02:18;;;;;;;5.38;2.20;;;;;;;6.38;88.79;102511.28;5011710;28;20183;-41
2022/04/30 02:04:43;;;;;;;2.22;2.00;;;;;;;6.27;89.33;102507.66;5029709;28;20215;-41
2022/04/30 02:07:10;;;;;;;4.57;2.47;;;;;;;6.30;89.37;102505.94;5029006;28;20180;-41
2022/04/30 02:09:36;;;;;;;5.05;2.20;;;;;;;6.22;89.25;102514.75;5029508;28;20713;-41
2022/04/30 02:12:01;;;;;;;2.42;2.08;;;;;;;6.30;89.67;102497.06;5029874;28;20184;-41
2022/04/30 02:14:29;;;;;;;5.07;2.25;;;;;;;6.22;89.84;102496.13;5029312;28;20770;-41
2022/04/30 02:16:55;;;;;;;5.95;2.35;;;;;;;6.10;90.18;102500.47;5028740;28;20323;-43
2022/04/30 02:19:22;;;;;;;6.93;1.90;;;;;;;6.02;90.71;102499.53;5029273;28;20271;-42
2022/04/30 02:21:48;;;;;;;3.58;2.25;;;;;;;5.92;90.64;102500.28;5029387;28;20180;-42
2022/04/30 02:24:15;;;;;;;2.63;1.85;;;;;;;5.81;91.58;102496.66;5029323;28;20208;-41
2022/04/30 02:26:43;;;;;;;2.35;2.13;;;;;;;5.95;92.07;102501.25;5029543;28;20484;-42
2022/04/30 02:29:10;;;;;;;4.20;2.33;;;;;;;5.78;92.46;102497.53;5028999;28;20204;-42
2022/04/30 02:31:35;;;;;;;3.90;2.10;;;;;;;5.75;92.55;102501.06;5029131;28;20164;-42
2022/04/30 02:34:01;;;;;;;3.88;2.20;;;;;;;5.84;92.56;102484.28;5029254;28;20183;-42
2022/04/30 02:36:26;;;;;;;4.10;2.05;;;;;;;5.74;93.06;102498.38;5028769;28;20195;-44
2022/04/30 02:38:54;;;;;;;4.43;2.33;;;;;;;5.78;93.02;102482.44;5029256;28;20583;-42
2022/04/30 02:41:21;;;;;;;2.17;1.92;;;;;;;5.88;93.16;102485.19;5029499;28;20176;-42
2022/04/30 02:43:51;;;;;;;5.85;2.13;;;;;;;5.71;92.45;102501.00;5028806;28;20176;-43
2022/04/30 02:46:17;;;;;;;3.05;2.20;;;;;;;5.73;92.94;102485.97;5029428;28;20420;-43
2022/04/30 02:48:43;;;;;;;3.30;1.83;;;;;;;5.74;93.12;102488.63;5028594;28;20204;-44
2022/04/30 02:51:10;;;;;;;2.55;2.00;;;;;;;5.69;93.20;102489.47;5011319;28;20172;-42
2022/04/30 02:53:39;;;;;;;5.60;1.92;;;;;;;5.67;93.09;102501.88;5011449;28;20234;-42
2022/04/30 02:56:05;;;;;;;3.95;1.65;;;;;;;5.70;93.17;102493.91;5029043;28;20175;-47
2022/04/30 03:01:15;;;;;;;2.13;1.90;;;;;;;5.80;92.69;102485.13;5032604;28;20208;-45
2022/04/30 03:04:01;;;;;;;3.15;2.10;;;;;;;5.58;92.83;102471.66;5015371;28;20191;-45
2022/04/30 03:06:26;;;;;;;2.90;1.90;;;;;;;5.53;93.16;102483.09;5032780;28;20190;-46
2022/04/30 03:08:52;;;;;;;3.38;1.92;;;;;;;5.57;93.49;102476.94;5032409;28;20204;-46
2022/04/30 03:11:19;;;;;;;2.60;1.80;;;;;;;5.68;93.44;102480.59;5032862;28;20215;-45
2022/04/30 03:13:45;;;;;;;4.47;1.95;;;;;;;5.51;93.31;102479.53;5032416;28;20230;-43
2022/04/30 03:21:42;;;;;;;2.42;1.80;;;;;;;5.50;93.23;102480.44;5033195;28;20657;-45
2022/04/30 03:24:18;;;;;;;4.90;2.08;;;;;;;5.46;93.16;102468.88;5033080;28;20698;-48
2022/04/30 03:26:48;;;;;;;2.80;2.10;;;;;;;5.40;93.26;102470.56;5032228;28;20171;-46
2022/04/30 03:29:15;;;;;;;2.92;1.75;;;;;;;5.44;93.20;102469.72;5032627;28;20859;-45
2022/04/30 03:31:41;;;;;;;3.58;1.73;;;;;;;5.48;93.41;102467.13;5028522;28;20247;-46
2022/04/30 03:34:10;;;;;;;3.20;2.03;;;;;;;5.58;93.15;102466.34;5032257;28;20184;-44
2022/04/30 03:36:36;;;;;;;4.68;1.80;;;;;;;5.69;92.81;102465.53;5032320;28;20204;-46
2022/04/30 03:39:06;;;;;;;2.47;2.28;;;;;;;5.60;92.25;102468.09;5031603;28;20250;-46
2022/04/30 03:41:31;;;;;;;2.88;1.90;;;;;;;5.56;92.12;102470.75;5032265;28;20179;-45
2022/04/30 03:43:57;;;;;;;4.85;2.53;;;;;;;5.43;92.41;102471.50;5031716;28;20182;-46
2022/04/30 03:46:22;;;;;;;2.75;2.03;;;;;;;5.42;92.57;102468.81;5031715;28;20184;-47
2022/04/30 03:48:53;;;;;;;1.88;1.67;;;;;;;5.56;93.00;102469.84;5031522;28;20457;-45
2022/04/30 03:51:19;;;;;;;2.88;1.77;;;;;;;5.57;92.57;102474.28;5031701;28;20176;-46
2022/04/30 03:53:45;;;;;;;2.10;1.60;;;;;;;5.66;92.61;102470.81;5032027;28;20274;-46
2022/04/30 03:56:10;;;;;;;2.75;2.00;;;;;;;5.53;91.89;102473.38;5031618;28;20184;-47
2022/04/30 03:58:37;;;;;;;3.97;1.92;;;;;;;5.53;92.16;102470.72;5013754;28;20203;-45
2022/04/30 04:01:02;;;;;;;2.92;1.88;;;;;;;5.51;92.51;102477.78;5031891;28;20686;-45
2022/04/30 04:03:28;;;;;;;3.42;1.90;;;;;;;5.51;92.47;102471.56;5031563;28;20275;-45
2022/04/30 04:05:53;;;;;;;1.70;1.60;;;;;;;5.58;92.21;102468.09;5032041;28;20663;-48
2022/04/30 04:08:20;;;;;;;3.85;2.40;;;;;;;5.51;92.26;102472.47;5030978;28;20183;-47
2022/04/30 04:10:46;;;;;;;1.92;1.83;;;;;;;5.58;92.83;102474.31;5030798;28;20254;-47
2022/04/30 04:18:40;;;;;;;3.35;2.08;;;;;;;5.49;93.11;102479.53;5031348;28;20200;-46
2022/04/30 04:21:07;;;;;;;6.95;2.33;;;;;;;5.57;93.04;102488.50;5031788;28;20266;-46
2022/04/30 04:25:58;;;;;;;5.32;2.03;;;;;;;5.50;93.13;102478.66;5031130;28;20188;-47
2022/04/30 04:26:18;;;;;;;3.08;2.30;;;;;;;5.54;93.45;102491.09;5031221;28;20227;-48
2022/04/30 04:28:44;;;;;;;4.40;2.20;;;;;;;5.51;93.69;102477.78;5030603;28;20264;-45
2022/04/30 04:31:09;;;;;;;7.32;2.45;;;;;;;5.57;93.59;102482.25;5031547;28;20548;-46
2022/04/30 04:33:35;;;;;;;5.57;2.60;;;;;;;5.53;93.86;102484.03;5031737;28;20176;-46
2022/04/30 04:36:00;;;;;;;4.85;2.42;;;;;;;5.46;94.11;102474.19;5031178;28;20634;-46
2022/04/30 04:38:25;;;;;;;5.25;2.80;;;;;;;5.55;94.62;102484.94;5030322;28;20627;-46
2022/04/30 04:40:51;;;;;;;4.68;2.70;;;;;;;5.62;94.68;102479.63;5031243;28;20172;-48
2022/04/30 04:43:16;;;;;;;4.35;2.60;;;;;;;5.65;95.03;102487.66;5031793;28;20176;-46
2022/04/30 04:45:43;;;;;;;6.10;3.10;;;;;;;5.67;94.75;102489.44;5031421;28;20567;-47
2022/04/30 04:48:09;;;;;;;6.82;3.00;;;;;;;5.57;95.82;102488.50;5030638;28;20191;-47
2022/04/30 04:50:35;;;;;;;4.68;3.00;;;;;;;5.66;95.70;102489.44;5031042;28;20204;-46
2022/04/30 04:53:00;;;;;;;6.07;3.58;;;;;;;5.60;95.64;102486.72;5030930;28;20561;-46
2022/04/30 04:55:25;;;;;;;4.97;2.85;;;;;;;5.78;95.90;102484.22;5030992;28;20238;-48
2022/04/30 04:57:51;;;;;;;5.80;3.88;;;;;;;5.90;95.79;102497.63;5030486;28;20265;-46
2022/04/30 05:00:16;;;;;;;4.30;3.08;;;;;;;5.99;95.69;102488.84;5031112;28;20592;-47
2022/04/30 05:02:43;;;;;;;5.90;4.10;;;;;;;5.95;95.80;102500.38;5030804;28;20192;-45
2022/04/30 05:05:09;;;;;;;6.55;4.28;;;;;;;6.10;96.02;102487.16;5030416;28;20257;-46
2022/04/30 05:07:34;;;;;;;10.52;4.60;;;;;;;6.25;96.08;102488.13;5030475;28;20180;-47
2022/04/30 05:10:00;;;;;;;9.48;3.67;;;;;;;6.39;95.58;102498.00;5030384;28;20580;-45
2022/04/30 05:12:26;;;;;;;6.10;4.60;;;;;;;6.47;95.82;102495.41;5031374;28;20187;-46
2022/04/30 05:14:53;;;;;;;7.60;4.55;;;;;;;6.46;95.36;102498.03;5030465;28;20176;-46
2022/04/30 05:17:18;;;;;;;11.15;5.15;;;;;;;6.48;95.47;102502.47;5030276;28;20242;-48
2022/04/30 05:19:44;;;;;;;8.25;4.78;;;;;;;6.64;95.84;102506.09;5030764;28;20200;-47
2022/04/30 05:22:09;;;;;;;7.43;4.65;;;;;;;6.74;94.98;102505.28;5030044;28;20534;-48
2022/04/30 05:24:35;;;;;;;6.35;4.80;;;;;;;6.83;94.86;102515.09;5030356;28;20218;-47
2022/04/30 05:27:01;;;;;;;7.45;5.57;;;;;;;6.73;94.88;102503.47;5030445;28;20267;-47
2022/04/30 05:29:27;;;;;;;10.23;5.22;;;;;;;6.71;95.51;102510.59;5029929;28;20195;-47
2022/04/30 05:31:52;;;;;;;11.32;5.32;;;;;;;6.78;95.52;102501.75;5046266;28;20180;-46
2022/04/30 05:34:18;;;;;;;6.97;5.60;;;;;;;6.88;95.98;102505.34;5031140;28;20631;-47
2022/04/30 05:36:43;;;;;;;10.38;5.45;;;;;;;6.91;95.52;102502.69;5030254;28;20184;-46
2022/04/30 05:39:09;;;;;;;7.82;5.75;;;;;;;7.03;95.20;102501.84;5029947;28;20673;-47
2022/04/30 05:41:34;;;;;;;8.73;6.20;;;;;;;7.06;95.25;102501.84;5030225;28;20182;-47
2022/04/30 05:44:00;;;;;;;12.98;6.93;;;;;;;6.99;95.09;102508.91;5030288;28;20545;-46
2022/04/30 05:46:26;;;;;;;10.23;6.30;;;;;;;7.09;96.20;102499.19;5029597;28;20182;-46
2022/04/30 05:48:51;;;;;;;11.52;7.07;;;;;;;7.23;96.23;102509.88;5029342;28;20278;-47
2022/04/30 05:51:17;;;;;;;12.88;6.68;;;;;;;6.84;96.57;102506.19;5028770;28;20279;-45
2022/04/30 05:53:43;;;;;;;8.43;6.20;;;;;;;6.93;97.03;102516.91;5029848;28;20634;-46
2022/04/30 05:56:08;;;;;;;7.20;6.53;;;;;;;7.07;97.23;102516.97;5029820;28;20454;-46
2022/04/30 05:58:34;;;;;;;10.88;7.50;;;;;;;7.12;97.24;102523.19;5029040;28;20214;-45
2022/04/30 06:01:00;;;;;;;12.15;7.10;;;;;;;7.21;96.99;102517.91;5010762;28;20180;-49
2022/04/30 06:03:25;;;;;;;16.02;7.80;;;;;;;7.29;96.70;102509.91;5029294;28;20357;-47
2022/04/30 06:05:50;;;;;;;9.70;7.80;;;;;;;7.22;96.19;102511.69;5028918;28;20314;-47
2022/04/30 06:08:16;;;;;;;9.93;6.88;;;;;;;7.36;95.71;102518.81;5029267;28;20180;-46
2022/04/30 06:10:41;;;;;;;11.95;7.95;;;;;;;7.28;95.81;102518.81;5029263;28;20700;-47
2022/04/30 06:13:07;;;;;;;10.68;7.90;;;;;;;6.82;96.44;102523.94;5029238;28;20704;-47
2022/04/30 06:15:32;;;;;;;16.45;9.02;;;;;;;6.60;96.93;102534.53;5029234;28;20184;-47
2022/04/30 06:17:58;;;;;;;9.70;8.70;;;;;;;6.58;97.57;102530.94;5029150;28;20618;-46
2022/04/30 06:20:24;;;;;;;10.57;8.00;;;;;;;6.77;97.70;102539.03;5028443;28;20690;-45
2022/04/30 06:22:49;;;;;;;9.55;7.72;;;;;;;7.12;97.54;102535.63;5028647;28;20180;-48
2022/04/30 06:25:15;;;;;;;12.95;8.00;;;;;;;7.25;96.96;102536.56;5028807;28;20204;-47
2022/04/30 06:27:40;;;;;;;14.63;8.23;;;;;;;7.37;95.82;102537.50;5026323;28;20606;-48
2022/04/30 06:30:07;;;;;;;11.45;7.47;;;;;;;6.90;94.38;102543.53;5028759;28;20196;-47
2022/04/30 06:32:34;;;;;;;13.25;8.10;;;;;;;7.16;94.53;102535.63;5029472;28;20233;-48
2022/04/30 06:34:59;;;;;;;13.70;8.38;;;;;;;7.23;94.04;102528.56;5031361;28;20171;-48
2022/04/30 06:37:25;;;;;;;12.68;8.10;;;;;;;7.49;93.77;102543.72;5033268;28;20242;-48
2022/04/30 06:39:51;;;;;;;9.38;7.13;;;;;;;7.68;92.91;102539.34;5032896;28;20373;-49
2022/04/30 06:42:17;;;;;;;10.30;8.25;;;;;;;7.60;92.33;102533.97;5032910;28;20719;-48
2022/04/30 06:44:42;;;;;;;11.93;8.40;;;;;;;7.65;91.91;102542.84;5033398;28;20204;-47
2022/04/30 06:47:07;;;;;;;9.45;7.20;;;;;;;7.79;90.77;102532.22;5032737;28;20176;-47
2022/04/30 06:49:33;;;;;;;14.23;7.70;;;;;;;7.68;90.33;102542.00;5017087;22;20237;-48
2022/04/30 06:51:58;;;;;;;14.13;8.13;;;;;;;7.70;91.20;102537.56;4993132;28;20184;-48
2022/04/30 06:57:08;;;;;;;10.88;7.80;;;;;;;7.55;91.27;102533.97;4994145;28;20256;-47
2022/04/30 06:59:41;;;;;;;12.55;7.55;;;;;;;7.70;91.77;102529.56;4993512;28;20686;-48
2022/04/30 07:02:23;;;;;;;12.05;7.55;;;;;;;7.70;91.28;102527.78;4993569;28;20232;-45
2022/04/30 07:04:51;;;;;;;9.55;7.28;;;;;;;7.55;90.99;102523.31;4993358;28;20682;-45
2022/04/30 07:07:18;;;;;;;12.85;7.20;;;;;;;7.72;90.72;102518.00;4993738;28;20192;-45
2022/04/30 07:09:44;;;;;;;11.02;7.07;;;;;;;7.73;90.59;102532.22;4993455;28;20255;-47
2022/04/30 07:12:11;;;;;;;9.80;7.22;;;;;;;7.72;89.46;102527.75;4993527;28;20157;-46
2022/04/30 07:14:39;;;;;;;12.70;7.30;;;;;;;7.80;88.96;102534.00;4992532;28;20162;-48
2022/04/30 07:17:06;;;;;;;12.52;7.50;;;;;;;8.00;88.06;102534.00;4993059;28;20189;-48
2022/04/30 07:19:31;;;;;;;11.00;6.72;;;;;;;7.95;86.78;102530.44;4993366;28;20746;-46
2022/04/30 07:21:57;;;;;;;9.07;6.85;;;;;;;8.05;87.08;102537.56;4992589;28;20272;-45
2022/04/30 07:24:22;;;;;;;9.23;7.25;;;;;;;7.94;87.65;102536.69;5075872;22;20350;-47
2022/04/30 07:26:48;;;;;;;10.63;7.60;;;;;;;7.90;87.48;102533.13;5053642;28;20237;-47
2022/04/30 07:29:13;;;;;;;10.60;8.00;;;;;;;7.51;88.64;102536.63;5059722;28;20228;-48
2022/04/30 07:31:39;;;;;;;10.15;8.05;;;;;;;7.75;89.39;102541.09;5072045;28;20166;-47
2022/04/30 07:34:04;;;;;;;15.82;8.68;;;;;;;7.96;89.08;102538.47;5053246;28;20198;-47
2022/04/30 07:36:31;;;;;;;12.98;8.65;;;;;;;7.76;88.29;102542.88;5066821;28;20187;-48
2022/04/30 07:38:57;;;;;;;9.73;8.50;;;;;;;7.86;88.70;102543.78;5049971;28;20206;-47
2022/04/30 07:41:23;;;;;;;11.05;8.27;;;;;;;8.11;88.61;102550.91;5032491;28;20188;-46
2022/04/30 07:43:48;;;;;;;12.18;7.82;;;;;;;7.84;87.52;102552.66;5031364;28;20175;-46
2022/04/30 07:46:14;;;;;;;11.70;7.57;;;;;;;8.12;86.70;102547.34;5030118;28;20184;-47
2022/04/30 07:48:39;;;;;;;9.98;7.70;;;;;;;8.24;86.39;102552.69;5048302;28;20703;-48
2022/04/30 07:51:13;;;;;;;11.77;8.32;;;;;;;8.28;86.37;102547.34;5050152;28;20182;-47
2022/04/30 07:53:38;;;;;;;12.40;7.95;;;;;;;8.08;86.16;102547.34;5051017;28;20180;-47
2022/04/30 07:56:04;;;;;;;12.02;7.95;;;;;;;8.30;86.01;102550.91;5051619;28;20536;-46
2022/04/30 07:58:30;;;;;;;10.65;7.13;;;;;;;8.57;84.84;102544.63;5033222;28;20187;-48
2022/04/30 08:00:55;;;;;;;10.50;7.18;;;;;;;8.75;83.44;102533.91;5051259;28;20260;-47
2022/04/30 08:03:21;;;;;;;8.18;6.55;;;;;;;8.93;83.33;102538.31;5051774;28;20236;-48
2022/04/30 08:05:46;;;;;;;9.00;7.03;;;;;;;8.91;82.33;102533.88;5051006;28;20207;-47
2022/04/30 08:08:13;;;;;;;8.10;6.63;;;;;;;9.19;82.23;102524.81;5051022;28;20187;-48
2022/04/30 08:10:38;;;;;;;10.63;6.82;;;;;;;9.53;81.21;102526.38;5051232;28;20577;-44
2022/04/30 08:13:03;;;;;;;10.60;6.90;;;;;;;9.20;81.30;102525.69;5051053;28;20206;-46
2022/04/30 08:15:29;;;;;;;9.25;6.85;;;;;;;9.62;80.22;102521.88;5051275;28;20163;-46
2022/04/30 08:17:55;;;;;;;8.63;6.78;;;;;;;9.31;79.93;102523.84;5050966;28;20171;-45
2022/04/30 08:20:20;;;;;;;12.60;6.10;;;;;;;9.56;80.31;102526.38;5051115;28;20199;-45
2022/04/30 08:22:46;;;;;;;10.93;6.80;;;;;;;9.83;78.44;102531.53;5051143;28;20178;-46
2022/04/30 08:25:11;;;;;;;10.82;6.90;;;;;;;9.73;79.27;102528.91;5050966;28;20669;-46
2022/04/30 08:27:37;;;;;;;9.15;6.80;;;;;;;10.13;78.07;102525.94;5050423;28;20180;-44
2022/04/30 08:30:03;;;;;;;9.07;6.32;;;;;;;9.88;78.13;102531.47;5050635;28;20203;-43
2022/04/30 08:32:28;;;;;;;6.97;6.28;;;;;;;10.20;77.34;102516.94;5050988;28;20202;-43
2022/04/30 08:34:54;;;;;;;9.93;6.45;;;;;;;9.84;76.77;102514.56;5050701;28;20650;-45
2022/04/30 08:37:19;;;;;;;9.57;6.35;;;;;;;10.02;76.50;102516.19;5050534;28;20649;-44
2022/04/30 08:39:46;;;;;;;8.02;5.85;;;;;;;10.10;75.51;102508.09;5050475;28;20202;-46
2022/04/30 08:42:14;;;;;;;8.32;6.72;;;;;;;10.51;76.05;102504.13;5050357;28;20182;-45
2022/04/30 08:44:40;;;;;;;7.43;5.55;;;;;;;11.03;73.54;102489.22;5050417;28;20209;-45
2022/04/30 08:47:09;;;;;;;7.85;5.70;;;;;;;11.14;72.77;102501.56;5050531;28;20171;-45
2022/04/30 08:49:34;;;;;;;6.93;5.43;;;;;;;11.07;72.87;102499.00;5050151;28;20580;-46
2022/04/30 08:52:00;;;;;;;8.50;5.53;;;;;;;11.83;71.17;102493.38;5050659;28;20186;-43
2022/04/30 08:54:25;;;;;;;6.57;5.05;;;;;;;11.70;71.00;102488.22;5050562;28;20605;-44
2022/04/30 08:56:53;;;;;;;8.38;5.35;;;;;;;12.47;69.62;102486.00;5050030;28;20178;-46
2022/04/30 08:59:18;;;;;;;5.90;4.95;;;;;;;11.36;69.45;102492.34;5049900;28;20199;-48
2022/04/30 09:01:46;;;;;;;8.60;5.10;;;;;;;12.16;69.78;102497.31;5050338;28;20186;-48
2022/04/30 09:04:12;;;;;;;9.23;6.22;;;;;;;11.69;69.42;102486.41;5050363;28;20160;-51
2022/04/30 09:06:48;;;;;;;7.88;5.60;;;;;;;11.58;70.78;102498.25;5050019;28;20539;-46
2022/04/30 09:09:24;;;;;;;7.15;5.10;;;;;;;11.37;69.98;102494.09;5049755;28;20211;-44
2022/04/30 09:11:53;;;;;;;6.47;5.03;;;;;;;11.64;69.80;102487.44;5050275;28;20174;-50
2022/04/30 09:14:27;;;;;;;7.88;5.40;;;;;;;11.82;69.32;102487.13;5050687;28;20179;-48
2022/04/30 09:17:12;;;;;;;7.13;4.78;;;;;;;12.23;67.31;102490.91;5050171;28;20601;-45
2022/04/30 09:20:04;;;;;;;5.53;4.85;;;;;;;12.20;68.02;102484.69;5049237;28;20724;-46
2022/04/30 09:22:38;;;;;;;8.07;5.40;;;;;;;11.88;68.55;102492.41;5045380;28;20281;-47
2022/04/30 09:25:12;;;;;;;6.63;4.90;;;;;;;12.47;68.33;102483.31;5049984;28;20574;-48
2022/04/30 09:27:45;;;;;;;7.60;4.63;;;;;;;13.21;68.67;102477.25;5049923;28;20190;-46
2022/04/30 09:30:29;;;;;;;7.20;4.53;;;;;;;13.46;64.23;102479.38;5049240;28;20213;-47
2022/04/30 09:33:07;;;;;;;5.22;4.15;;;;;;;12.41;65.19;102478.03;5050044;28;20203;-47
2022/04/30 09:38:19;;;;;;;6.28;4.32;;;;;;;13.11;66.63;102468.47;5048937;28;20164;-48
2022/04/30 09:41:00;;;;;;;5.63;4.18;;;;;;;13.56;64.47;102467.50;5050479;28;20519;-51
2022/04/30 09:43:32;;;;;;;5.85;4.18;;;;;;;13.48;62.83;102473.03;5049697;28;20202;-46
2022/04/30 09:45:59;;;;;;;6.35;3.92;;;;;;;13.41;63.16;102466.03;5049833;28;20684;-46
2022/04/30 09:53:57;;;;;;;7.18;4.43;;;;;;;12.59;65.17;102469.59;5029792;28;20180;-49
2022/04/30 09:56:35;;;;;;;5.53;4.25;;;;;;;12.38;66.67;102468.25;4992945;28;20179;-47
2022/04/30 09:59:09;;;;;;;7.32;4.53;;;;;;;12.66;64.97;102468.56;4995084;28;20638;-47
2022/04/30 10:01:36;;;;;;;5.25;4.75;;;;;;;12.96;64.18;102447.28;5029722;28;20666;-45
2022/04/30 10:04:07;;;;;;;5.60;4.40;;;;;;;13.32;64.48;102451.00;5029644;28;20194;-49
2022/04/30 10:06:39;;;;;;;5.47;4.20;;;;;;;13.47;63.67;102454.22;5029443;28;20211;-46
2022/04/30 10:09:08;;;;;;;6.82;5.90;;;;;;;13.32;62.47;102447.41;5030317;28;20218;-46
2022/04/30 10:11:46;;;;;;;15.63;8.00;;;;;;;13.18;63.54;102448.59;5033521;28;20553;-47
2022/04/30 10:14:17;;;;;;;5.65;5.13;;;;;;;12.95;63.01;102451.78;5015504;28;20270;-46
2022/04/30 10:16:55;;;;;;;8.50;4.50;;;;;;;12.39;63.13;102458.38;5033727;28;20180;-48
2022/04/30 10:19:21;;;;;;;6.05;4.05;;;;;;;12.99;64.25;102447.25;4999317;28;20294;-47
2022/04/30 10:22:10;;;;;;;5.90;4.45;;;;;;;12.89;63.61;102440.28;5033373;28;20254;-52
2022/04/30 10:24:41;;;;;;;4.63;3.97;;;;;;;13.64;62.69;102440.34;5033173;28;20195;-46
2022/04/30 10:27:06;;;;;;;8.63;4.45;;;;;;;12.70;63.09;102445.16;5033451;28;20184;-49
2022/04/30 10:29:31;;;;;;;5.63;4.57;;;;;;;13.41;62.45;102439.13;5032681;28;20589;-47
2022/04/30 10:31:57;;;;;;;5.90;4.55;;;;;;;12.95;63.48;102441.03;5033311;28;20187;-46
2022/04/30 10:34:30;;;;;;;7.20;4.18;;;;;;;13.69;63.56;102430.38;5033157;28;20638;-50
2022/04/30 10:36:56;;;;;;;5.93;4.18;;;;;;;13.98;61.76;102432.28;5033079;28;20821;-45
2022/04/30 10:39:21;;;;;;;5.07;4.38;;;;;;;13.92;60.85;102427.06;5032692;28;20199;-47
2022/04/30 10:41:53;;;;;;;5.18;4.22;;;;;;;14.12;61.35;102426.50;5032750;28;20693;-49
2022/04/30 10:44:31;;;;;;;6.10;4.07;;;;;;;14.06;59.91;102418.59;5032835;28;20184;-46
2022/04/30 10:47:13;;;;;;;6.35;4.38;;;;;;;14.45;60.46;102413.00;5032292;28;20188;-49
2022/04/30 10:49:38;;;;;;;7.50;3.50;;;;;;;14.50;56.76;102417.34;5014435;28;20295;-42
2022/04/30 10:52:04;;;;;;;3.88;3.58;;;;;;;14.25;57.09;102405.50;5032884;28;20254;-47
2022/04/30 10:54:30;;;;;;;4.00;3.40;;;;;;;14.42;57.68;102403.19;5033612;28;20541;-46
2022/04/30 10:57:04;;;;;;;8.20;4.00;;;;;;;13.60;59.72;102408.13;5032687;28;20261;-51
2022/04/30 10:59:30;;;;;;;5.68;3.88;;;;;;;13.92;61.25;102408.19;5031842;28;20227;-48
2022/04/30 11:01:55;;;;;;;4.95;3.58;;;;;;;14.32;59.45;102398.97;5032729;28;20269;-45
2022/04/30 11:04:22;;;;;;;6.95;3.80;;;;;;;14.20;58.90;102401.09;5032800;28;20176;-47
2022/04/30 11:06:52;;;;;;;4.53;3.90;;;;;;;14.32;57.59;102399.88;5032899;28;20188;-45
2022/04/30 11:09:19;;;;;;;4.05;3.30;;;;;;;14.96;54.86;102398.91;5031918;28;20751;-50
2022/04/30 11:11:47;;;;;;;5.28;3.70;;;;;;;15.06;56.04;102403.06;5015290;28;20234;-49
2022/04/30 11:14:13;;;;;;;5.43;3.15;;;;;;;14.69;54.56;102398.81;5032704;28;20207;-47
2022/04/30 11:16:42;;;;;;;3.08;2.78;;;;;;;15.34;54.29;102400.34;5032425;28;20211;-47
2022/04/30 11:19:10;;;;;;;5.18;4.03;;;;;;;13.35;55.59;102402.44;5032229;28;20208;-44
2022/04/30 11:21:40;;;;;;;4.20;3.35;;;;;;;14.20;56.17;102401.09;5032066;28;20176;-45
2022/04/30 11:24:08;;;;;;;5.05;3.50;;;;;;;14.35;54.31;102398.91;5032231;28;20200;-45
2022/04/30 11:26:41;;;;;;;4.20;3.45;;;;;;;14.36;53.88;102398.84;5032216;28;20200;-46
2022/04/30 11:29:13;;;;;;;4.00;3.50;;;;;;;14.78;54.21;102394.94;5031897;28;20302;-46
2022/04/30 11:31:42;;;;;;;4.78;3.47;;;;;;;15.11;53.85;102395.72;5032071;28;20295;-46
2022/04/30 11:34:12;;;;;;;3.28;2.92;;;;;;;15.41;51.09;102390.22;5013981;28;20203;-46
2022/04/30 11:36:46;;;;;;;7.60;3.03;;;;;;;15.52;50.77;102395.28;5032198;28;20284;-45
2022/04/30 11:39:13;;;;;;;3.40;3.10;;;;;;;14.65;53.51;102389.06;5031174;28;20210;-47
2022/04/30 11:41:43;;;;;;;4.38;3.35;;;;;;;14.47;53.36;102392.28;5032105;28;20745;-45
2022/04/30 11:44:14;;;;;;;3.50;3.15;;;;;;;14.52;54.65;102387.59;5032175;28;20199;-45
2022/04/30 11:46:41;;;;;;;3.90;3.47;;;;;;;15.26;54.41;102386.22;5031530;28;20186;-51
2022/04/30 11:49:11;;;;;;;3.70;3.22;;;;;;;14.07;54.46;102380.81;5031282;28;20238;-47
2022/04/30 11:51:37;;;;;;;4.30;3.60;;;;;;;13.95;56.61;102386.53;5031671;28;20180;-47
2022/04/30 11:54:07;;;;;;;4.68;3.40;;;;;;;13.94;55.04;102384.78;5031953;28;20207;-46
2022/04/30 11:56:33;;;;;;;5.18;3.00;;;;;;;13.67;54.93;102372.94;5031838;28;20210;-44
2022/04/30 11:58:58;;;;;;;6.22;3.35;;;;;;;14.07;56.47;102372.72;5031104;28;20208;-45
2022/04/30 12:01:28;;;;;;;3.67;2.88;;;;;;;14.10;55.16;102369.06;5031261;28;20275;-45